CYYF

Details ICAO CYYF (YYF)
Name PENTICTON
Region Canada
Timezone America/Vancouver (UTC-8.0)
Plans Departing 17
Arriving 22
Stats Elevation 1,129 ft / 344 m (AMSL)
Location 49.461250° -119.601385°
Runways 1
Magnetic Variation 15.574° E
Sunrise 2017-12-13 15:47:58 UTC / 2017-12-13 07:47:58 Local
Sunset 2017-12-14 00:00:24 UTC / 2017-12-13 16:00:24 Local
Advertisement - Login to hide

Runways

ID Width Length Bearing (true) Bearing (mag) Surface Threshold Offset Overrun Length
16 148 ft / 45 m 5,986 ft / 1,825 m 182.52° 166.95° Asphalt 0 ft / 0 m 0 ft / 0 m
34 148 ft / 45 m 5,986 ft / 1,825 m 2.52° 346.95° Asphalt 300 ft / 91 m 0 ft / 0 m

Approach Navaids

Runway Type Ident Frequency Range Bearing (true) Bearing (mag) Slope Elevation
16 Localiser XYF 110.30 MHz 18 nm / 33 km 180.00° 164.43° - 1,116 ft / 340 m (AMSL)

Map

Weather


0- 5 10 15 20 25 30 35+ Temperature / ° C

Clouds and Precipitation
Forecast for 2017-12-13 12:00 UTC. Updated 2 hours ago

Ground ~20,000 ft ~40,000 ft Winds

METAR

CYYF 130900Z 33004KT 15SM -SHSN BKN025 OVC040TCU M01/M04 A3056 RMK SC5TCU3 SLP366

TAF

TAF CYYF 130638Z 1307/1319 VRB03KT P6SM OVC025 TEMPO 1307/1310 OVC020 FM131000 35005KT P6SM OVC020 TEMPO 1310/1319 OVC025 RMK NXT FCST BY 131300Z

Frequencies

Tower 118.50 MHz MF
Approach 133.50 MHz VANCOUVER APP/DEP
Warning: Do not use this data for real-world aviation or navigation. No guarantee of current accuracy is given.